x

9441102 - Westport, Wa (wptw1) Weather Station

12:30 - Thu 28th May 2015 All times are PDT. -7 hours from GMT.

  • Wind
    8mph, 9mph gusts
  • Sea Temp 56°f
  • Aire Temp 53°f
  • Sea Pressure 1019.6mb
  • 9441102 - Westport, Wa
  • 9441102 - Westport, Wa

More Historic Weather Station data

Upgrade to MSW Pro to gain access to the past 30 days of data for over 8000 Wavebouys and Weather Stations around the globe.

Join Pro

Comparision Forecast

View Surf forecast
   
jue 05/28 12:30 8 9 mph 1019.6mb 56f 53f
12:24 7
mph
1019.6mb 56f 54f
12:18 7 8 mph 1019.6mb 56f 54f
12:12 6 7 mph 1019.6mb 56f 53f
12:06 6 8 mph 1019.6mb 56f 53f
12:00 7 8 mph 1019.6mb 56f 53f
11:36 6 7 mph 1019.6mb 56f 53f
11:30 5 6 mph 1019.7mb 56f 53f
11:24 6 7 mph 1019.7mb 56f 54f
11:18 6 8 mph 1019.7mb 56f 53f
11:12 6 7 mph 1019.7mb 56f 53f
11:06 6 8 mph 1019.7mb 56f 53f
11:00 6 9 mph 1019.7mb 56f 53f
10:36 6 8 mph 1019.7mb 56f 53f
10:30 6
mph
1019.7mb 56f 52f
10:24 6 7 mph 1019.7mb 56f 52f
10:18 6 7 mph 1019.7mb 56f 52f
10:12 6 7 mph 1019.6mb 56f 52f
10:06 5 6 mph 1019.7mb 56f 52f
10:00 5 6 mph 1019.8mb 56f 52f
9:36 5 6 mph 1019.9mb 56f 52f
9:30 5 7 mph 1019.9mb 56f 52f
9:24 5 6 mph 1019.9mb 56f 52f
9:18 5 6 mph 1019.8mb 56f 52f
9:12 3 5 mph 1019.8mb 56f 52f
9:06 3 5 mph 1019.8mb 57f 52f
9:00 3 5 mph 1019.9mb 57f 52f
8:36 5
mph
1019.8mb 57f 52f
8:30 1 2 mph 1019.8mb 57f 52f
8:24  -  1 mph 1019.7mb 57f 52f
8:18  -  2 mph 1019.7mb 57f 52f
8:12  -  2 mph 1019.6mb 57f 51f
8:06  -  1 mph 1019.6mb 57f 51f
8:00 1 2 mph 1019.6mb 57f 51f
7:36 2 3 mph 1019.5mb 56f 51f
7:30 2 3 mph 1019.6mb 56f 51f
7:24  -  1 mph 1019.5mb 56f 51f
7:18  -  1 mph 1019.5mb 56f 51f
7:12  -  3 mph 1019.5mb 56f 51f
7:06 2 5 mph 1019.5mb 56f 51f
7:00 2 3 mph 1019.4mb 56f 51f
6:36  -  1 mph 1019.3mb 56f 51f
6:30  -  2 mph 1019.4mb 56f 51f
6:24 2 5 mph 1019.3mb 56f 51f
6:18 2 3 mph 1019.2mb 56f 51f
6:12 2 5 mph 1019.2mb 56f 51f
6:06 5 6 mph 1019.2mb 56f 51f
6:00 5 6 mph 1019mb 56f 51f
5:36 5 6 mph 1019mb 56f 51f
5:30 5 6 mph 1019mb 56f 51f
5:24 6 7 mph 1018.9mb 56f 51f
5:18 5 7 mph 1018.9mb 56f 51f
5:12 2 5 mph 1018.9mb 56f 51f
5:06  -  1 mph 1018.9mb 56f 51f
5:00 2 7 mph 1018.8mb 57f 51f
4:36 2 3 mph 1018.7mb 57f 51f
4:30 5 7 mph 1018.7mb 57f 51f
4:24 5 7 mph 1018.7mb 57f 51f
4:18 5 6 mph 1018.6mb 57f 51f
4:12 5 6 mph 1018.5mb 57f 51f
4:06 7 8 mph 1018.6mb 57f 51f
4:00 8 9 mph 1018.6mb 57f 51f
3:36 8 10 mph 1018.7mb 57f -
3:30 6 10 mph 1018.7mb 57f -
3:24 7 10 mph 1018.7mb 57f -
3:18 8 10 mph 1018.7mb 57f -
3:12 9 10 mph 1018.7mb 57f -
3:06 7 8 mph 1018.6mb 57f -
3:00 5 6 mph 1018.6mb 57f -
2:36 5 7 mph 1018.6mb 57f 51f
2:30 3 7 mph 1018.6mb 57f 51f
2:24 6 7 mph 1018.6mb 57f 51f
2:18 6 9 mph 1018.6mb 57f 51f
2:12 7 8 mph 1018.7mb 57f 51f
2:06 5 8 mph 1018.7mb 57f 51f
2:00 8 9 mph 1018.8mb 57f 51f
1:36 7 8 mph 1018.9mb 57f 52f
1:30 7 8 mph 1018.9mb 57f 52f
1:24 5 6 mph 1018.9mb 57f 52f
1:18 5
mph
1018.9mb 57f 52f
1:12 3 6 mph 1018.9mb 57f 51f
1:06 3 6 mph 1018.8mb 56f 52f
1:00 3 7 mph 1018.8mb 56f 52f
12:36 5 6 mph 1019mb 56f 52f
12:30 6 7 mph 1019mb 56f 52f
12:24 6 9 mph 1019mb 56f 52f
12:18 8 9 mph 1019mb 56f 52f
12:12 6 7 mph 1019.1mb 56f 52f
12:06 5 8 mph 1019.1mb 56f 52f
12:00 6 7 mph 1019.1mb 56f 52f
mié 05/27 11:36 9 13 mph 1019.1mb 55f 52f
11:30 7 8 mph 1019mb 56f 52f
11:24 7 8 mph 1019mb 55f 52f
11:18 6 8 mph 1019mb 55f 52f
11:12 6 9 mph 1019mb 55f 52f
11:06 8 9 mph 1019mb 55f 53f
11:00 7 9 mph 1019mb 55f 52f
10:36 8 10 mph 1019.1mb 55f 52f
10:30 6 9 mph 1019mb 55f 52f
10:24 8 10 mph 1019mb 55f 52f
10:18 8 10 mph 1019mb 55f 53f
10:12 8 10 mph 1019mb 55f 53f
10:06 7 9 mph 1018.9mb 55f 53f
10:00 7 8 mph 1019mb 55f 53f
9:36 9 10 mph 1018.8mb 55f 53f
9:30 9 11 mph 1018.8mb 55f 53f
9:24 8 10 mph 1018.7mb 55f 53f
9:18 5 6 mph 1018.6mb 55f 53f
9:12 6 11 mph 1018.5mb 56f 53f
9:06 8 10 mph 1018.4mb 56f 53f
9:00 9 11 mph 1018.5mb 56f 53f
8:36 8 13 mph 1018.3mb 56f 53f
8:30 9 13 mph 1018.3mb 56f 53f
8:24 9 11 mph 1018.3mb 56f 53f
8:18 8 11 mph 1018.3mb 56f 53f
8:12 9 13 mph 1018.3mb 56f 53f
8:06 10 14 mph 1018.3mb 56f 54f
8:00 9 13 mph 1018.3mb 56f 53f
7:36 10 11 mph 1018.2mb 56f 54f
7:30 8 14 mph 1018.2mb 56f 53f
7:24 10 13 mph 1018.3mb 56f 53f
7:18 11 14 mph 1018.4mb 56f 54f
7:12 10 14 mph 1018.4mb 56f 54f
7:06 9 13 mph 1018.4mb 56f 54f
7:00 10 13 mph 1018.4mb 56f 54f
6:36 11 15 mph 1018.4mb 56f 54f
6:30 10 13 mph 1018.4mb 56f 54f
6:24 11 14 mph 1018.5mb 56f 54f
6:18 13 15 mph 1018.6mb 56f 54f
6:12 13 14 mph 1018.6mb 56f 54f
6:06 11 15 mph 1018.6mb 56f 54f
6:00 14 15 mph 1018.6mb 56f 54f
5:36 13 15 mph 1018.8mb 56f 55f
5:30 13 16 mph 1018.8mb 56f 55f
5:24 13 15 mph 1018.8mb 56f 55f
5:18 13 15 mph 1018.8mb 56f 54f
5:12 13 14 mph 1018.8mb 56f 54f
5:06 13 15 mph 1018.8mb 56f 54f
5:00 14 15 mph 1018.9mb 56f 54f
4:36 11 16 mph 1019mb 56f -
4:30 11 14 mph 1019mb 56f -
4:24 10 13 mph 1019mb 56f -
4:18 13 15 mph 1019mb 56f -
4:12 10 13 mph 1019.1mb 56f -
4:06 11 14 mph 1019mb 56f -
4:00 11 14 mph 1019mb 56f -
1:36 10 11 mph 1019.5mb 56f 54f
1:30 10 14 mph 1019.5mb 56f 53f
1:24 11 14 mph 1019.5mb 57f 54f
1:18 11 13 mph 1019.6mb 57f 54f
1:12 9 11 mph 1019.6mb 57f 54f
1:06 10 13 mph 1019.6mb 57f 54f
1:00 9 11 mph 1019.6mb 57f 54f
12:54 8 9 mph 1019.6mb 57f 54f
12:48 7 9 mph 1019.6mb 57f 53f
12:36 7 9 mph 1019.5mb 57f 54f
12:30 5 8 mph 1019.5mb 57f 54f
12:24 5 6 mph 1019.5mb 57f 54f
12:18 3 7 mph 1019.4mb 57f 54f
12:12 5 8 mph 1019.4mb 57f 54f
12:06 5 6 mph 1019.4mb 56f 54f
12:00 5 6 mph 1019.4mb 56f 54f
11:54 5 6 mph 1019.4mb 56f 54f
11:48 5 6 mph 1019.5mb 56f 54f
11:36 2 5 mph 1019.5mb 56f 54f
11:30 2 5 mph 1019.5mb 56f 53f
11:24 5 7 mph 1019.5mb 56f 53f
11:18 3 6 mph 1019.4mb 56f 53f
11:12 2 5 mph 1019.4mb 56f 53f
11:06 3 6 mph 1019.4mb 56f 53f
11:00 3 6 mph 1019.4mb 56f 54f
10:54 2 6 mph 1019.5mb 55f 53f
10:48 3 6 mph 1019.6mb 55f 53f
10:36 2 5 mph 1019.5mb 55f 53f
10:30 2 5 mph 1019.6mb 55f 52f
10:24 3 6 mph 1019.6mb 55f 52f
10:18 6 7 mph 1019.6mb 55f 52f
10:12 6 7 mph 1019.6mb 55f 53f
10:06 5 6 mph 1019.5mb 55f 52f
10:00 3 5 mph 1019.5mb 55f 52f
9:54 3 6 mph 1019.4mb 55f 52f
9:48 5 6 mph 1019.4mb 55f 52f
9:36 6 7 mph 1019.4mb 55f 52f
9:30 3 7 mph 1019.4mb 55f 52f
9:24 2 6 mph 1019.4mb 55f 52f
9:18 3 6 mph 1019.4mb 55f 52f
9:12 1 2 mph 1019.4mb 55f 52f
9:06 1 3 mph 1019.4mb 55f 52f
9:00 3 5 mph 1019.4mb 55f 52f
8:54 3 6 mph 1019.4mb 55f 51f
8:48 3 6 mph 1019.4mb 56f 51f
8:36 6 8 mph 1019.3mb 56f 51f
8:30 6
mph
1019.3mb 56f 51f
8:24 6 7 mph 1019.2mb 56f 52f
8:18 6 7 mph 1019.2mb 56f 51f
8:12 5 6 mph 1019.1mb 56f 51f
8:06 3 5 mph 1019.1mb 56f 51f
8:00 3 5 mph 1019.1mb 56f 51f
7:54 2 3 mph 1019.1mb 56f 51f
7:48 2 3 mph 1019.1mb 56f 51f
7:36 3 5 mph 1019.1mb 56f 51f
7:30 3 5 mph 1019.1mb 56f 50f
7:24 5
mph
1019.1mb 56f 51f
7:18 2 5 mph 1019.1mb 56f 51f
7:12 5 6 mph 1019.1mb 56f 51f
7:06 2 3 mph 1019mb 56f 51f
7:00 2 6 mph 1019mb 56f 51f
6:54 5 7 mph 1019.1mb 56f 51f
6:48 5 9 mph 1019.2mb 56f 51f
6:36 6 9 mph 1019.2mb 56f 51f
6:30 8 9 mph 1019.1mb 56f 51f
6:24 7 9 mph 1019.1mb 56f 51f
6:18 3 6 mph 1019.1mb 56f 51f
6:12 5 6 mph 1019.1mb 56f 51f
6:06 6 8 mph 1019.1mb 56f 51f
6:00 5 7 mph 1019.1mb 56f 51f
5:54 7 9 mph 1019mb 56f 51f
5:48 9 10 mph 1019mb 56f 51f
5:36 8 9 mph 1018.9mb 56f 51f
5:30 5 7 mph 1018.9mb 56f 51f
5:24 5 6 mph 1018.8mb 56f 50f
5:18 6 8 mph 1018.8mb 56f 50f
5:12 7 9 mph 1018.8mb 56f 51f
5:06 9 10 mph 1018.7mb 56f 51f
5:00 9 10 mph 1018.7mb 56f 51f
4:54  -  mph 1018.6mb 56f 51f
4:48  -  mph 1018.6mb 56f 51f
4:36 8 10 mph 1018.7mb 56f 51f
4:30 7 10 mph 1018.7mb 56f 51f
4:24 6 7 mph 1018.7mb 56f 51f
4:18 3 6 mph 1018.7mb 56f 50f
4:12 6 7 mph 1018.7mb 56f 51f
4:06 8 9 mph 1018.7mb 56f 51f
4:00 6 9 mph 1018.7mb 56f 51f
3:54 7 8 mph 1018.6mb 56f 51f
3:48 5 8 mph 1018.5mb 56f 51f
3:36 7 8 mph 1018.6mb 56f 51f
3:30 6 7 mph 1018.6mb 56f 51f
3:24 6 7 mph 1018.6mb 56f 51f
3:18 2 3 mph 1018.6mb 56f 51f
3:12 3 5 mph 1018.7mb 56f 51f
3:06 2 3 mph 1018.7mb 56f 51f
3:00 3 7 mph 1018.7mb 56f 51f
2:54 6 8 mph 1018.6mb 56f 51f
2:48 6 7 mph 1018.6mb 56f 51f
2:36  -  mph 1018.7mb - -
2:30  -  mph 1018.7mb - -
2:24  -  mph 1018.7mb - -
2:18  -  mph 1018.6mb - -
2:12  -  mph 1018.6mb - -
2:06  -  mph 1018.6mb - -
2:00  -  mph 1018.5mb - -
1:54  -  mph 1018.5mb - -
1:48  -  mph 1018.6mb - -
1:36 3
mph
1018.6mb 57f 51f
1:30 1 3 mph 1018.6mb 57f 51f
1:24 3 6 mph 1018.5mb 57f 51f
1:18 6 7 mph 1018.5mb 57f 51f
1:12 6 7 mph 1018.5mb 57f 51f
1:06 6 7 mph 1018.4mb 57f 51f
1:00 3 6 mph 1018.4mb 57f 51f
12:54 5 6 mph 1018.4mb 57f 51f
12:48 5 7 mph 1018.4mb 57f 51f
12:36 2 3 mph 1018.5mb 57f 51f
12:30 2 6 mph 1018.5mb 56f 52f
12:24 5 7 mph 1018.6mb 56f 51f
12:18 6 7 mph 1018.5mb 56f 52f
12:12 5 7 mph 1018.5mb 56f 52f
12:06 7
mph
1018.5mb 56f 52f
12:00 2 3 mph 1018.5mb 56f 52f
mar 05/26 11:54 3 7 mph 1018.5mb 56f 52f
11:48 3 7 mph 1018.4mb 56f 52f
11:36 5 8 mph 1018.4mb 56f 52f
11:30 5 7 mph 1018.4mb 56f 52f
11:24 6 7 mph 1018.3mb 55f 52f
11:18 7 8 mph 1018.4mb 55f 52f
11:12 7 9 mph 1018.5mb 55f 52f
11:06 6 7 mph 1018.4mb 55f 52f
11:00 6 7 mph 1018.4mb 55f 52f
10:54 6 7 mph 1018.4mb 55f 52f
10:48 7 10 mph 1018.4mb 55f 52f
10:36 6 8 mph 1018.4mb 54f 53f
10:30 5 8 mph 1018.4mb 54f 52f
10:24 6 7 mph 1018.4mb 54f 52f
10:18 7 9 mph 1018.5mb 54f 52f
10:12 6 7 mph 1018.5mb 54f 52f
10:06 8 10 mph 1018.4mb 54f 52f
10:00 6 8 mph 1018.4mb 54f 52f
9:54 6 8 mph 1018.3mb 54f 52f
9:48 6 9 mph 1018.2mb 54f 52f
9:36 8 11 mph 1018.3mb 54f 53f
9:30 9 11 mph 1018.3mb 54f 53f
9:24 8 11 mph 1018.2mb 54f 53f
9:18 9 10 mph 1018.2mb 54f 53f
9:12 8 10 mph 1018.1mb 54f 53f
9:06 7 9 mph 1018.1mb 54f 53f
9:00 8 10 mph 1018.1mb 54f 53f
8:54 8 10 mph 1018.1mb 54f 53f
8:48 10 13 mph 1018.1mb 55f 53f
8:36 9 13 mph 1018.1mb 55f 53f
8:30 9 13 mph 1018.1mb 55f 53f
8:24 13 14 mph 1018mb 55f 53f
8:18 13 14 mph 1017.9mb 55f 54f
8:12 10 11 mph 1017.9mb 55f 54f
8:06 11 14 mph 1017.9mb 55f 54f
8:00 13 14 mph 1017.9mb 55f 54f
7:54 11 14 mph 1017.8mb 55f 54f
7:48 11 14 mph 1017.8mb 55f 54f
7:36 11 13 mph 1017.9mb 55f 54f
7:30 13 15 mph 1017.9mb 55f 54f
7:24 11 14 mph 1017.7mb 55f 55f
7:18 11 13 mph 1017.7mb 55f 55f
7:12 13 14 mph 1017.7mb 55f 55f
7:06 13 14 mph 1017.7mb 55f 55f
7:00 11 13 mph 1017.6mb 55f 55f
6:54 11 13 mph 1017.6mb 55f 56f
6:48 10 11 mph 1017.7mb 55f 56f
6:36 9 10 mph 1017.7mb 55f 55f
6:30 9 11 mph 1017.7mb 55f 56f
6:24 10 11 mph 1017.7mb 55f 55f
6:18 10 11 mph 1017.7mb 55f 55f
6:12 11
mph
1017.8mb 55f 55f
6:06 10 13 mph 1017.8mb 55f 55f
6:00 11 13 mph 1017.9mb 55f 55f
5:36 14 15 mph 1018mb 55f 56f
5:30 14 15 mph 1018mb 55f 56f
5:24 14 15 mph 1018.1mb 55f 56f
5:18 13 14 mph 1018.1mb 55f 56f
5:12 13 14 mph 1018.2mb 55f 56f
5:06 14
mph
1018.2mb 55f 57f
5:00 13 14 mph 1018.2mb 55f 56f
4:54 11 13 mph 1018.2mb 55f 55f
4:48 13 14 mph 1018.2mb 55f 56f
4:36 11 14 mph 1018.3mb 55f 56f
4:30 13 15 mph 1018.3mb 55f 56f
4:24 13 15 mph 1018.3mb 55f 56f
4:18 13 15 mph 1018.3mb 55f 56f
4:12 13 14 mph 1018.3mb 55f 56f
4:06 13 14 mph 1018.4mb 55f 56f
4:00 14
mph
1018.4mb 55f 56f
3:54 13 14 mph 1018.4mb 55f 56f
3:48 13 14 mph 1018.4mb 55f 56f
3:36 10 13 mph 1018.5mb 55f 56f
3:30 11 13 mph 1018.5mb 55f 55f
3:24 11 13 mph 1018.6mb 55f 56f
3:18 11 14 mph 1018.5mb 55f 56f
3:12 13 14 mph 1018.6mb 55f 56f
3:06 11 13 mph 1018.6mb 55f 57f
3:00 11 14 mph 1018.7mb 55f 56f
2:54 10 13 mph 1018.7mb 55f 57f
2:48 10 13 mph 1018.6mb 55f 57f
2:36 10 11 mph 1018.6mb 56f 57f
2:30 10 11 mph 1018.6mb 56f 58f
2:24 9 13 mph 1018.7mb 56f 57f
2:18 9 10 mph 1018.7mb 56f 57f
2:12 8 11 mph 1018.8mb 56f 58f
2:06 9 10 mph 1018.9mb 56f 58f
2:00 8 10 mph 1018.8mb 56f 57f
1:54 8 9 mph 1018.8mb 56f 57f
1:48 8 9 mph 1018.8mb 56f 56f
1:36 8 10 mph 1018.8mb 56f 56f
1:30 8 9 mph 1018.8mb 56f 56f
1:24 7 8 mph 1018.8mb 56f 56f
1:18 7 8 mph 1018.9mb 56f 56f
1:12 6 8 mph 1018.9mb 56f 56f
1:06 7 8 mph 1018.9mb 56f 55f
1:00 7 8 mph 1018.8mb 56f 56f
12:54 7 8 mph 1018.9mb 56f 56f
12:48 6 8 mph 1018.8mb 56f 56f
12:36 6 7 mph 1018.8mb 56f 56f
12:30 6 7 mph 1018.8mb 56f 57f
12:24 6 7 mph 1018.8mb 56f 56f
12:18 7 8 mph 1018.8mb 56f 56f
12:12 6 8 mph 1018.8mb 56f 56f
12:06 6 7 mph 1018.7mb 56f 56f
12:00 7 8 mph 1018.7mb 56f 55f
11:54 7 8 mph 1018.7mb 56f 56f
11:48 7 8 mph 1018.7mb 56f 55f
9:36 5
mph
1018.3mb 54f 53f
9:30 5
mph
1018.3mb 54f 54f
9:24 3
mph
1018.4mb 54f 53f
9:18 3 5 mph 1018.3mb 53f 54f
9:12 3 5 mph 1018.3mb 53f 53f
9:06 3
mph
1018.3mb 53f 54f
9:00 2 3 mph 1018.3mb 53f 53f
8:54 2 3 mph 1018.3mb 53f 53f
8:48 3
mph
1018.4mb 53f 53f
8:36 2 5 mph 1018.3mb 53f 53f
8:30 2 3 mph 1018.3mb 53f 53f
8:24 2 3 mph 1018.3mb 53f 53f
8:18 3
mph
1018.3mb 53f 53f
8:12 3
mph
1018.3mb 53f 53f
8:06 2 3 mph 1018.2mb 53f 54f
8:00 3
mph
1018.2mb 53f 53f
7:54 1 3 mph 1018.2mb 54f 53f
7:48 1
mph
1018.2mb 54f 53f
7:36 2 3 mph 1018.2mb 54f 52f
7:30 2 3 mph 1018.2mb 54f 52f
7:24 2 3 mph 1018.1mb 54f 52f
7:18 2 3 mph 1018.1mb 54f 52f
7:12 1 2 mph 1018mb 54f 52f
7:06 2 3 mph 1018mb 54f 52f
7:00 1 3 mph 1017.9mb 54f 52f
6:54 2 3 mph 1017.9mb 54f 52f
6:48 2 3 mph 1017.8mb 54f 52f
6:36 2
mph
1017.9mb 54f 52f
6:30 2
mph
1017.9mb 54f 52f
6:24 2
mph
1017.8mb 54f 52f
6:18 1 2 mph 1017.8mb 55f 52f
6:12 1 2 mph 1017.7mb 55f 52f
6:06 1
mph
1017.7mb 55f 52f
6:00 1
mph
1017.7mb 55f 52f
5:54  -  1 mph 1017.6mb 55f 52f
5:48  -  1 mph 1017.6mb 55f 52f
5:36 1
mph
1017.6mb 55f 52f
5:30 1
mph
1017.6mb 55f 52f
5:24 1
mph
1017.6mb 55f 52f
5:18 1
mph
1017.6mb 55f 52f
5:12  -  1 mph 1017.6mb 55f 52f
5:06  -  1 mph 1017.5mb 55f 52f
5:00  -  1 mph 1017.5mb 55f 52f
4:54  -  1 mph 1017.4mb 55f 52f
4:48  -  1 mph 1017.4mb 55f 52f
4:36 1
mph
1017.4mb 55f 52f
4:30 1 2 mph 1017.4mb 55f 52f
4:24 1 2 mph 1017.4mb 55f 52f
4:18 2
mph
1017.4mb 55f 52f
4:12 2
mph
1017.5mb 55f 52f
4:06 3
mph
1017.5mb 55f 52f
4:00 2 3 mph 1017.5mb 55f 52f
3:54 2 3 mph 1017.5mb 55f 52f
3:48 3
mph
1017.5mb 55f 52f
3:36 3
mph
1017.5mb 55f 52f
3:30 2
mph
1017.5mb 54f 52f
3:24 2 3 mph 1017.4mb 55f 52f
3:18 2 3 mph 1017.4mb 55f 52f
3:12 2 3 mph 1017.4mb 55f 52f
3:06 3 5 mph 1017.4mb 55f 52f
3:00 3 5 mph 1017.4mb 55f 52f
2:54 2 3 mph 1017.3mb 55f 52f
2:48 3 5 mph 1017.3mb 55f 52f
2:36 6 7 mph 1017.3mb 55f 52f
2:30 6 7 mph 1017.3mb 55f 52f
2:24 6 7 mph 1017.4mb 55f 52f
2:18 5 6 mph 1017.3mb 55f 52f
2:12 5 6 mph 1017.2mb 55f 52f
2:06 5 6 mph 1017.2mb 55f 52f
2:00 5 6 mph 1017.2mb 55f 52f
1:54 5 6 mph 1017.2mb 55f 52f
1:48 5 6 mph 1017.3mb 55f 52f
1:36 5 6 mph 1017.4mb 55f 52f
1:30 6 7 mph 1017.4mb 55f 52f
1:24 6 7 mph 1017.4mb 55f 52f
1:18 6 7 mph 1017.4mb 55f 52f
1:12 6 7 mph 1017.4mb 55f 52f
1:06 6 7 mph 1017.4mb 55f 52f
1:00 7 8 mph 1017.3mb 55f 52f
12:54 7 8 mph 1017.3mb 55f 52f
12:48 7 8 mph 1017.4mb 55f 52f
12:36 7 8 mph 1017.4mb 55f 52f
12:30 7 8 mph 1017.4mb 55f 52f
12:24 6 8 mph 1017.5mb 55f 52f
12:18 6 7 mph 1017.4mb 55f 52f
12:12 5 6 mph 1017.4mb 55f 52f
12:06 6
mph
1017.4mb 55f 52f
12:00 6 8 mph 1017.4mb 55f 52f
lun 05/25 11:54 6 7 mph 1017.5mb 55f 52f
11:48 5 6 mph 1017.5mb 55f 52f
11:36 3 5 mph 1017.5mb 55f 52f
11:30 3 5 mph 1017.5mb 55f 52f
11:24 5 6 mph 1017.4mb 55f 52f
11:18 5 6 mph 1017.4mb 55f 52f
11:12 5
mph
1017.4mb 55f 52f
11:06 5 6 mph 1017.4mb 55f 52f
11:00 6
mph
1017.4mb 55f 52f
10:54 5 6 mph 1017.4mb 55f 53f
10:48 6
mph
1017.4mb 54f 52f
10:36 5 6 mph 1017.5mb 54f 53f
10:30 6
mph
1017.6mb 54f 53f
10:24 7 8 mph 1017.6mb 54f 53f
10:18 6 7 mph 1017.5mb 54f 53f
10:12 6 7 mph 1017.5mb 54f 53f
10:06 6 9 mph 1017.5mb 54f 53f
10:00 7 9 mph 1017.5mb 54f 53f
9:54 7 8 mph 1017.5mb 53f 53f
9:48 7
mph
1017.5mb 53f 53f
9:36 7 8 mph 1017.5mb 53f 53f
9:30 7 8 mph 1017.5mb 53f 53f
9:24 7 9 mph 1017.4mb 53f 53f
9:18 7 8 mph 1017.4mb 53f 53f
9:12 8 9 mph 1017.3mb 53f 53f
9:06 7 9 mph 1017.3mb 53f 53f
9:00 9 11 mph 1017.3mb 53f 53f
8:54 10 13 mph 1017.2mb 53f 53f
8:48 10 13 mph 1017.2mb 53f 53f
8:36 13 14 mph 1017.2mb 53f 53f
8:30 13 14 mph 1017.2mb 53f 53f
8:24 13 14 mph 1017.2mb 53f 53f
8:18 13 14 mph 1017.2mb 53f 53f
8:12 13 14 mph 1017.2mb 53f 54f
8:06 13 15 mph 1017.3mb 53f 54f
8:00 13 16 mph 1017.2mb 53f 54f
7:54 15 17 mph 1017.2mb 53f 54f
7:48 14 16 mph 1017.2mb 53f 54f
7:36 13 16 mph 1017.2mb 53f 54f
7:30 11 14 mph 1017.2mb 54f 54f
7:24 14 16 mph 1017.2mb 54f 54f
7:18 13 15 mph 1017.2mb 54f 54f
7:12 14 15 mph 1017.1mb 54f 53f
7:06 14 15 mph 1017.2mb 54f 53f
7:00 11 14 mph 1017.2mb 54f 53f
6:54 10 13 mph 1017.2mb 55f 54f
6:48 9 13 mph 1017.3mb 55f 53f
6:36 10 13 mph 1017.3mb 55f 53f
6:30 10 13 mph 1017.3mb 55f 53f
6:24 10 14 mph 1017.2mb 55f 53f
6:18 11 14 mph 1017.2mb 55f 54f
6:12 10 11 mph 1017.3mb 55f 54f
6:06 11
mph
1017.3mb 55f 54f
6:00 9 13 mph 1017.3mb 55f 53f
5:54 8 10 mph 1017.3mb 55f 53f
5:48 8 11 mph 1017.3mb 55f 53f
5:36 10 11 mph 1017.4mb 55f 54f
5:30 9 11 mph 1017.5mb 55f 54f
5:24 10 11 mph 1017.5mb 55f 54f
5:18 9 11 mph 1017.5mb 55f 54f
5:12 10 11 mph 1017.5mb 55f 54f
5:06 10 13 mph 1017.5mb 55f 54f
5:00 11 13 mph 1017.6mb 55f 54f
4:54 10 13 mph 1017.6mb 55f 54f
4:48 10 11 mph 1017.5mb 55f 54f
4:36 9 10 mph 1017.6mb 55f 54f
4:30 9 10 mph 1017.6mb 55f 54f
4:24 8 10 mph 1017.5mb 55f 54f
4:18 9 10 mph 1017.5mb 55f 54f
4:12 8 9 mph 1017.6mb 55f 53f
4:06 9
mph
1017.6mb 55f 54f
4:00 7 9 mph 1017.7mb 55f 54f
3:54 8 9 mph 1017.7mb 55f 53f
3:48 8 9 mph 1017.7mb 55f 53f
3:36 8 10 mph 1017.7mb 55f 53f
3:30 9 10 mph 1017.8mb 55f 53f
3:24 9 11 mph 1017.8mb 55f 53f
3:18 8 11 mph 1017.8mb 55f 53f
3:12 10 13 mph 1017.9mb 55f 54f
3:06 11 13 mph 1017.9mb 55f 54f
3:00 9 11 mph 1017.8mb 55f 55f
2:54 9 11 mph 1017.9mb 55f 54f
2:48 8 11 mph 1017.9mb 55f 54f
2:36 9 11 mph 1017.9mb 55f 54f
2:30 8 10 mph 1017.9mb 55f 55f
2:24 8 10 mph 1017.9mb 55f 54f
2:18 7 10 mph 1017.9mb 55f 54f
2:12 8 10 mph 1017.9mb 55f 54f
2:06 8 10 mph 1017.9mb 55f 54f
2:00 8 10 mph 1017.8mb 55f 54f
1:54 8 10 mph 1017.9mb 55f 54f
1:48 8 10 mph 1017.9mb 55f 54f
1:36 8 10 mph 1018mb 55f 55f
1:30 9 11 mph 1018mb 55f 54f
1:24 9 11 mph 1018mb 55f 54f
1:18 10 11 mph 1018mb 55f 55f
1:12 8 10 mph 1018mb 55f 55f
1:06 8 10 mph 1017.9mb 55f 55f
1:00 8 10 mph 1017.9mb 55f 55f
12:54 7 9 mph 1017.8mb 55f 55f
12:48 8 9 mph 1017.7mb 55f 54f
12:36 8 9 mph 1017.6mb 55f 54f
12:30 7 9 mph 1017.6mb 55f 55f
12:24 7 9 mph 1017.6mb 55f 54f
12:18 8 10 mph 1017.6mb 55f 54f
12:12 7 10 mph 1017.5mb 55f 54f
12:06 10 13 mph 1017.6mb 55f 53f
12:00 9 10 mph 1017.5mb 55f 53f
11:54 7 9 mph 1017.5mb 55f 53f
11:48 7 9 mph 1017.5mb 55f 54f
11:36 6 8 mph 1017.4mb 55f 53f
11:30 6 8 mph 1017.5mb 55f 53f
11:24 5 7 mph 1017.5mb 55f 53f
11:18 5 7 mph 1017.5mb 55f 53f
11:12 6 7 mph 1017.4mb 55f 53f
11:06 7 8 mph 1017.4mb 55f 54f
11:00 7 9 mph 1017.3mb 55f 54f
10:54 8 9 mph 1017.3mb 55f 53f
10:48 7 9 mph 1017.3mb 55f 53f
10:36 7 9 mph 1017.3mb 55f 54f
10:30 6 7 mph 1017.3mb 55f 53f
10:24 7 9 mph 1017.3mb 55f 53f
10:18 6 8 mph 1017.3mb 55f 53f
10:12 6 8 mph 1017.2mb 55f 53f
10:06 6 7 mph 1017.2mb 55f 53f
10:00 6 8 mph 1017.2mb 55f 53f
9:54 5 6 mph 1017.2mb 55f 53f
9:48 5 7 mph 1017.2mb 55f 53f
9:36 5 6 mph 1017.2mb 54f 52f
9:30 5 6 mph 1017.2mb 54f 53f
9:24 5 6 mph 1017.2mb 54f 52f
9:18 3 6 mph 1017.2mb 54f 52f
9:12 3 5 mph 1017.2mb 54f 51f
9:06 5 6 mph 1017.1mb 54f 52f
9:00 3 6 mph 1017.1mb 54f 52f
8:54 5 6 mph 1017mb 54f 52f
8:48 5 6 mph 1017mb 54f 52f
8:36 2 3 mph 1017mb 54f 52f
8:30 2 3 mph 1017mb 54f 52f
8:24 2 3 mph 1016.9mb 54f 52f
8:18 3
mph
1016.9mb 54f 52f
8:12 3 5 mph 1016.9mb 54f 52f
8:06 2 3 mph 1016.9mb 53f 51f
8:00 2 3 mph 1016.9mb 53f 51f
7:54 2 3 mph 1016.8mb 53f 52f
7:48  -  mph 1016.8mb 53f 52f
7:36 3 5 mph 1016.8mb 53f 51f
7:30 5
mph
1016.7mb 53f 51f
7:24 5 6 mph 1016.8mb 53f 51f
7:18 3 5 mph 1016.7mb 53f 51f
7:12 3 5 mph 1016.7mb 53f 51f
7:06 5 6 mph 1016.7mb 53f 51f
7:00 6 8 mph 1016.8mb 54f 51f
6:54 7 8 mph 1016.8mb 54f 51f
6:48 5 6 mph 1016.7mb 54f 51f
6:36 5 6 mph 1016.8mb 54f 51f
6:30 5 6 mph 1016.7mb 54f 51f
6:24 3 5 mph 1016.7mb 54f 51f
6:18 1 3 mph 1016.7mb 54f 51f
6:12 2
mph
1016.7mb 54f 51f
6:06 2 3 mph 1016.7mb 54f 51f
6:00 2 3 mph 1016.7mb 54f 51f
5:54 2 5 mph 1016.7mb 54f 51f
5:48 3 6 mph 1016.7mb 54f 51f
5:36 5 6 mph 1016.8mb 54f 51f
5:30 3 5 mph 1016.8mb 54f 51f
5:24 5 6 mph 1016.8mb 54f 51f
5:18 5 7 mph 1016.7mb 54f 51f
5:12 6 7 mph 1016.7mb 54f 51f
5:06 6 7 mph 1016.8mb 54f 51f
5:00 6
mph
1016.8mb 54f 51f
4:54 6 7 mph 1016.9mb 54f 51f
4:48 7 8 mph 1016.9mb 54f 51f
4:36 7 8 mph 1016.9mb 54f 51f
4:30 7 8 mph 1016.8mb 54f 51f
4:24 8
mph
1016.8mb 54f 51f
4:18 8 10 mph 1016.8mb 54f 51f
4:12 11 13 mph 1016.8mb 54f 51f
4:06 10 11 mph 1016.8mb 54f 51f
4:00 6 8 mph 1016.8mb 54f 51f
3:54 7 8 mph 1016.8mb 54f 51f
3:48 8 9 mph 1016.8mb 54f 51f
3:36 13 16 mph 1016.9mb 54f 51f
3:30 14 16 mph 1016.9mb 54f 51f
3:24 9 10 mph 1017mb 54f 51f
3:18 7 8 mph 1017mb 54f 51f
3:12 7 8 mph 1017.1mb 54f 51f
3:06 7 9 mph 1017.1mb 54f 51f
3:00 8 9 mph 1017.1mb 54f 51f
2:54 8 10 mph 1017.1mb 54f 51f
2:48 8 9 mph 1017.1mb 54f 51f
2:36 10 11 mph 1017.1mb 54f 52f
2:30 10 11 mph 1017.1mb 54f 52f
2:24 9 13 mph 1017.2mb 54f 52f
2:18 10 13 mph 1017.2mb 54f 52f
2:12 11 13 mph 1017.2mb 55f 51f
2:06 10 11 mph 1017.2mb 55f 52f
2:00 11 13 mph 1017.2mb 55f 52f
1:54 11 13 mph 1017.2mb 55f 52f
1:48 10 11 mph 1017.3mb 55f 52f
1:36 8 10 mph 1017.3mb 55f 52f
1:30 9 10 mph 1017.3mb 55f 52f
1:24 10 11 mph 1017.3mb 55f 51f
1:18 11 14 mph 1017.3mb 55f 52f
1:12 11 13 mph 1017.4mb 55f 52f
1:06 10 13 mph 1017.4mb 55f 52f
1:00 10 14 mph 1017.4mb 55f 52f
12:54 11 15 mph 1017.4mb 55f 52f
12:48 13 16 mph 1017.4mb 55f 52f
12:36 16 18 mph 1017.5mb 55f 52f
12:30 13 14 mph 1017.4mb 55f 52f
12:24 11 15 mph 1017.5mb 55f 52f
12:18 13 16 mph 1017.5mb 55f 52f
12:12 10 14 mph 1017.5mb 55f 52f
12:06 13 14 mph 1017.5mb 55f 52f
12:00 9 11 mph 1017.5mb 55f 52f
dom 05/24 11:54 10 13 mph 1017.6mb 55f 52f
11:48 10 13 mph 1017.6mb 55f 52f
11:36 10 13 mph 1017.7mb 55f 52f
11:30 11 13 mph 1017.7mb 55f 52f
11:24 11 14 mph 1017.7mb 55f 52f
11:18 11 14 mph 1017.7mb 55f 52f
11:12 11 14 mph 1017.7mb 55f 52f
11:06 11 13 mph 1017.7mb 55f 52f
11:00 13 14 mph 1017.8mb 55f 52f
10:54 15 16 mph 1017.8mb 55f 52f
10:48 13 15 mph 1017.9mb 55f 52f
10:36 11 13 mph 1017.9mb 55f 52f
10:30 11 14 mph 1017.9mb 55f 53f
10:24 10 14 mph 1017.9mb 55f 52f
10:18 9 13 mph 1017.9mb 54f 52f
10:12 11 15 mph 1018mb 54f 52f
10:06 15 17 mph 1018mb 54f 52f
10:00 11 15 mph 1018mb 54f 52f
9:54 14 16 mph 1018mb 54f 52f
9:48 13 14 mph 1018.1mb 54f 52f
9:36 8 9 mph 1018.1mb 54f 52f
9:30 9 10 mph 1018mb 54f 52f
9:24 10 14 mph 1018mb 54f 52f
9:18 14 15 mph 1017.9mb 54f 52f
9:12 11 15 mph 1017.9mb 53f 52f
9:06 13 15 mph 1017.9mb 53f 52f
9:00 14 16 mph 1017.8mb 53f 52f
8:54 11 14 mph 1017.8mb 53f 52f
8:48 13 14 mph 1017.8mb 53f 52f
8:36 13 14 mph 1017.8mb 53f 52f
8:30 14
mph
1017.9mb 53f 52f